Time;durP1;ratioP1;P1;durP2;ratioP2;P2;SDS_P1;SDS_P2;PMS_P1;PMS_P2;Temp;Humidity;BMP_temperature;BMP_pressure;BME280_temperature;BME280_humidity;BME280_pressure;Samples;Min_cycle;Max_cycle;Signal;HPM_P1;HPM_P2
2023/12/15 00:00:13;;;;;;;42.60;18.35;;;;;;;11.23;75.32;102797.47;5051657;28;20098;-46
2023/12/15 00:02:38;;;;;;;40.30;17.25;;;;;;;11.32;75.59;102804.81;5050942;28;20037;-45
2023/12/15 00:05:04;;;;;;;38.58;17.65;;;;;;;11.56;74.40;102802.28;5050371;28;20119;-44
2023/12/15 00:07:29;;;;;;;37.50;17.08;;;;;;;11.63;74.12;102804.31;5050786;28;20109;-47
2023/12/15 00:09:55;;;;;;;41.90;17.83;;;;;;;11.59;74.21;102800.69;5051508;28;20036;-44
2023/12/15 00:12:20;;;;;;;43.13;18.33;;;;;;;11.53;73.82;102808.25;5051142;28;20033;-47
2023/12/15 00:14:45;;;;;;;41.25;18.50;;;;;;;11.26;75.24;102818.50;5050941;28;20052;-45
2023/12/15 00:17:11;;;;;;;41.10;17.73;;;;;;;11.50;74.69;102823.84;5051377;28;20047;-46
2023/12/15 00:19:36;;;;;;;38.13;17.77;;;;;;;11.43;75.45;102823.50;5051179;28;20079;-48
2023/12/15 00:22:02;;;;;;;40.22;17.75;;;;;;;11.60;74.58;102839.03;5051316;28;20041;-47
2023/12/15 00:24:27;;;;;;;41.88;17.88;;;;;;;11.52;74.57;102832.63;5051088;28;20116;-45
2023/12/15 00:26:53;;;;;;;34.40;17.20;;;;;;;11.63;74.02;102849.63;5051303;28;20048;-46
2023/12/15 00:29:18;;;;;;;42.40;18.88;;;;;;;11.37;74.92;102845.06;5051313;28;20036;-46
2023/12/15 00:31:44;;;;;;;41.33;17.85;;;;;;;11.46;74.89;102848.06;5050474;28;20116;-46
2023/12/15 00:34:09;;;;;;;38.50;17.08;;;;;;;11.53;74.57;102839.63;5049982;28;20045;-50
2023/12/15 00:36:34;;;;;;;40.63;17.52;;;;;;;11.55;74.97;102834.47;5051203;28;20029;-44
2023/12/15 00:39:00;;;;;;;39.70;18.10;;;;;;;11.63;74.64;102831.34;5051357;28;20384;-45
2023/12/15 00:41:25;;;;;;;33.42;17.35;;;;;;;11.69;74.54;102828.97;5050843;28;20040;-47
2023/12/15 00:43:50;;;;;;;40.38;17.33;;;;;;;11.45;74.81;102825.38;5051498;28;20171;-44
2023/12/15 00:46:15;;;;;;;43.83;17.80;;;;;;;11.38;74.97;102820.72;5051126;28;20121;-48
2023/12/15 00:48:41;;;;;;;44.47;17.95;;;;;;;11.31;75.55;102823.91;5050793;28;20040;-44
2023/12/15 00:51:07;;;;;;;39.47;17.58;;;;;;;11.51;75.14;102827.34;5051016;28;20036;-46
2023/12/15 00:53:32;;;;;;;38.45;17.15;;;;;;;11.32;76.03;102837.03;5051203;28;20048;-47
2023/12/15 00:55:59;;;;;;;37.63;16.65;;;;;;;11.63;74.65;102839.19;5052503;28;20025;-46
2023/12/15 00:58:25;;;;;;;38.42;16.48;;;;;;;11.69;73.97;102839.41;5051975;28;20495;-48
2023/12/15 01:00:50;;;;;;;47.92;17.67;;;;;;;11.33;75.54;102850.97;5050786;28;20121;-46
2023/12/15 01:03:16;;;;;;;39.05;17.25;;;;;;;11.42;75.44;102859.19;5050682;28;20040;-44
2023/12/15 01:05:41;;;;;;;39.95;16.83;;;;;;;11.62;74.54;102852.16;5050252;28;20522;-44
2023/12/15 01:08:06;;;;;;;37.78;16.92;;;;;;;11.67;74.68;102851.53;5050290;28;20119;-45
2023/12/15 01:10:31;;;;;;;35.67;17.23;;;;;;;11.44;75.74;102854.94;5050105;28;20060;-47
2023/12/15 01:12:57;;;;;;;39.75;17.10;;;;;;;11.67;74.85;102850.63;5050220;28;20037;-48
2023/12/15 01:15:22;;;;;;;37.60;16.75;;;;;;;11.67;74.61;102846.28;5049578;28;20151;-47
2023/12/15 01:17:48;;;;;;;35.10;16.60;;;;;;;11.72;74.13;102851.69;5049919;28;20094;-48
2023/12/15 01:20:14;;;;;;;36.60;16.75;;;;;;;11.66;74.40;102861.91;5050167;28;20048;-51
2023/12/15 01:22:39;;;;;;;35.90;16.52;;;;;;;11.68;74.25;102849.81;5049495;28;20032;-49
2023/12/15 01:25:05;;;;;;;38.38;17.08;;;;;;;11.65;74.13;102844.44;5050288;28;20082;-45
2023/12/15 01:27:30;;;;;;;37.92;17.05;;;;;;;11.60;74.35;102857.31;5049793;28;20116;-46
2023/12/15 01:29:56;;;;;;;38.58;16.00;;;;;;;11.64;74.31;102871.44;5050204;28;20033;-48
2023/12/15 01:32:21;;;;;;;45.78;17.05;;;;;;;11.38;74.83;102871.22;5050129;28;20521;-44
2023/12/15 01:34:46;;;;;;;38.22;16.38;;;;;;;11.56;74.61;102873.72;5049728;28;20033;-47
2023/12/15 01:37:11;;;;;;;40.53;17.20;;;;;;;11.48;74.91;102872.50;5049880;28;20047;-47
2023/12/15 01:39:37;;;;;;;41.35;16.88;;;;;;;11.57;74.51;102872.88;5049626;28;20037;-44
2023/12/15 01:42:02;;;;;;;40.88;17.30;;;;;;;11.08;76.86;102884.72;5048377;28;20036;-46
2023/12/15 01:44:28;;;;;;;36.92;16.20;;;;;;;11.29;76.63;102872.56;5049838;28;20060;-45
2023/12/15 01:46:53;;;;;;;39.40;17.08;;;;;;;11.53;75.02;102888.34;5050261;28;20040;-45
2023/12/15 01:49:19;;;;;;;34.47;16.02;;;;;;;11.19;76.57;102900.00;5050366;28;20116;-49
2023/12/15 01:51:44;;;;;;;39.80;16.92;;;;;;;11.13;77.18;102901.44;5047791;28;20037;-49
2023/12/15 01:54:10;;;;;;;40.08;17.15;;;;;;;11.18;77.22;102902.53;5049705;28;20036;-45
2023/12/15 01:56:35;;;;;;;38.85;17.05;;;;;;;11.23;76.49;102914.97;5049296;28;20066;-45
2023/12/15 01:59:01;;;;;;;43.50;16.58;;;;;;;11.36;75.90;102914.66;5049804;28;20495;-48
2023/12/15 02:01:26;;;;;;;40.38;16.38;;;;;;;11.19;76.80;102931.34;5049607;28;20473;-43
2023/12/15 02:03:51;;;;;;;41.15;15.75;;;;;;;11.42;76.31;102928.81;5049700;28;20124;-45
2023/12/15 02:06:17;;;;;;;37.10;15.82;;;;;;;11.49;76.33;102936.06;5050076;28;20064;-44
2023/12/15 02:08:43;;;;;;;42.00;16.38;;;;;;;11.28;76.54;102947.38;5048508;28;20037;-46
2023/12/15 02:11:09;;;;;;;37.50;15.93;;;;;;;11.43;76.69;102949.78;5049792;28;20037;-43
2023/12/15 02:13:34;;;;;;;38.20;15.55;;;;;;;11.34;76.96;102947.66;5049542;28;20071;-43
2023/12/15 02:15:59;;;;;;;35.78;15.60;;;;;;;11.32;77.49;102956.25;5050097;28;20045;-45
2023/12/15 02:18:25;;;;;;;39.33;15.65;;;;;;;11.50;76.92;102974.44;5050279;28;20103;-43
2023/12/15 02:20:50;;;;;;;37.42;16.02;;;;;;;11.53;76.19;102972.84;5050721;28;20100;-43
2023/12/15 02:23:15;;;;;;;35.72;15.35;;;;;;;11.65;76.26;102975.06;5050736;28;20400;-44
2023/12/15 02:25:41;;;;;;;40.70;15.27;;;;;;;11.64;76.14;102973.31;5050849;28;20043;-44
2023/12/15 02:28:06;;;;;;;39.28;15.75;;;;;;;11.65;75.59;102973.34;5051838;28;20109;-45
2023/12/15 02:30:31;;;;;;;42.50;16.27;;;;;;;11.46;76.86;102980.38;5053687;28;20041;-43
2023/12/15 02:32:56;;;;;;;40.70;14.98;;;;;;;11.56;76.44;102975.59;5053660;28;20052;-47
2023/12/15 02:35:22;;;;;;;35.45;15.73;;;;;;;11.66;76.60;102976.88;5053559;28;20033;-46
2023/12/15 02:37:47;;;;;;;34.83;14.75;;;;;;;11.60;76.73;102974.88;5054181;28;20614;-45
2023/12/15 02:40:13;;;;;;;34.85;14.43;;;;;;;11.60;76.24;102976.59;5054917;28;20414;-48
2023/12/15 02:42:38;;;;;;;37.95;14.73;;;;;;;11.39;77.66;102981.81;5054729;28;20064;-50
2023/12/15 02:45:04;;;;;;;31.65;14.23;;;;;;;11.63;76.92;102981.97;5054063;28;20033;-45
2023/12/15 02:47:30;;;;;;;37.80;15.13;;;;;;;11.46;76.52;102990.81;5054650;28;20078;-46
2023/12/15 02:49:55;;;;;;;33.53;13.73;;;;;;;11.78;76.17;102983.53;5055428;28;20380;-45
2023/12/15 02:52:20;;;;;;;38.63;14.45;;;;;;;11.57;76.14;103000.91;5055652;28;20044;-44
2023/12/15 02:54:46;;;;;;;33.47;14.20;;;;;;;11.76;75.89;103003.50;5054991;28;20041;-44
2023/12/15 02:57:11;;;;;;;33.25;14.35;;;;;;;11.74;76.41;103001.63;5053262;28;20048;-45
2023/12/15 02:59:37;;;;;;;33.63;13.82;;;;;;;11.75;76.08;103003.44;5052126;28;20136;-47
2023/12/15 03:02:03;;;;;;;38.22;14.05;;;;;;;11.78;75.94;103012.28;5052597;28;20040;-46
2023/12/15 03:04:28;;;;;;;31.92;13.98;;;;;;;11.92;75.53;103007.63;5052076;28;20419;-44
2023/12/15 03:06:55;;;;;;;38.67;14.55;;;;;;;11.78;75.56;103016.63;5052965;28;20398;-48
2023/12/15 03:09:21;;;;;;;35.53;13.65;;;;;;;11.94;75.27;103010.31;5053230;28;20021;-45
2023/12/15 03:11:46;;;;;;;32.88;13.85;;;;;;;11.89;75.81;103011.88;5052888;28;20499;-45
2023/12/15 03:14:11;;;;;;;30.98;13.88;;;;;;;11.84;75.77;103019.47;5054012;28;20037;-50
2023/12/15 03:16:37;;;;;;;31.65;13.43;;;;;;;11.91;75.44;103013.69;5052251;28;20033;-46
2023/12/15 03:19:02;;;;;;;33.28;13.35;;;;;;;11.86;75.55;103025.69;5052435;28;20167;-44
2023/12/15 03:21:28;;;;;;;31.83;13.43;;;;;;;11.62;76.38;103027.22;5051823;28;20040;-51
2023/12/15 03:23:53;;;;;;;35.47;13.40;;;;;;;11.45;77.82;103033.44;5051029;28;20045;-48
2023/12/15 03:26:18;;;;;;;27.40;12.45;;;;;;;11.76;76.92;103021.78;5036022;28;20034;-47
2023/12/15 03:28:44;;;;;;;35.08;13.48;;;;;;;11.81;76.51;103023.69;5032245;28;20033;-45
2023/12/15 03:31:09;;;;;;;30.50;12.98;;;;;;;11.97;75.69;103026.13;5032358;28;20034;-44
2023/12/15 03:33:35;;;;;;;33.47;13.40;;;;;;;11.96;75.56;103029.56;5032202;28;20064;-48
2023/12/15 03:36:04;;;;;;;33.60;12.15;;;;;;;11.97;75.82;103036.56;5032399;28;20057;-49
2023/12/15 03:38:30;;;;;;;30.85;11.55;;;;;;;11.85;76.26;103043.91;5032050;28;20037;-46
2023/12/15 03:40:56;;;;;;;33.45;12.50;;;;;;;11.88;76.20;103036.22;5031065;28;20041;-44
2023/12/15 03:43:21;;;;;;;28.55;12.10;;;;;;;11.87;76.74;103042.25;5031971;28;20034;-47
2023/12/15 03:45:47;;;;;;;29.17;11.40;;;;;;;12.04;75.93;103043.84;5031596;28;20037;-45
2023/12/15 03:48:12;;;;;;;28.90;11.90;;;;;;;11.75;76.41;103053.09;5031911;28;20109;-47
2023/12/15 03:50:37;;;;;;;28.10;11.57;;;;;;;12.01;75.89;103043.75;5030244;28;20105;-47
2023/12/15 03:53:03;;;;;;;26.17;11.32;;;;;;;12.04;75.59;103047.38;5030609;28;20064;-46
2023/12/15 03:55:28;;;;;;;27.83;11.35;;;;;;;12.05;75.44;103059.63;5031687;28;20036;-46
2023/12/15 03:57:53;;;;;;;33.00;11.80;;;;;;;12.00;75.35;103063.75;5032005;28;20510;-50
2023/12/15 04:00:20;;;;;;;33.58;11.10;;;;;;;11.99;75.78;103054.13;5031946;28;20122;-48
2023/12/15 04:02:46;;;;;;;35.13;11.48;;;;;;;11.87;76.41;103065.78;5031540;28;20653;-45
2023/12/15 04:05:12;;;;;;;26.83;10.70;;;;;;;12.04;75.65;103057.81;5031658;28;20573;-46
2023/12/15 04:07:37;;;;;;;24.05;10.38;;;;;;;12.08;75.08;103059.72;5031338;28;20030;-45
2023/12/15 04:10:03;;;;;;;29.65;10.80;;;;;;;12.11;75.37;103064.19;5031653;28;20033;-44
2023/12/15 04:12:28;;;;;;;29.13;10.57;;;;;;;11.93;75.74;103064.31;5031042;28;20046;-44
2023/12/15 04:14:54;;;;;;;31.52;10.57;;;;;;;11.82;75.97;103069.91;5031965;28;20084;-45
2023/12/15 04:17:19;;;;;;;30.20;10.40;;;;;;;11.67;77.39;103078.84;5031957;28;20040;-46
2023/12/15 04:19:44;;;;;;;30.63;10.25;;;;;;;11.96;76.25;103085.34;5031123;28;20038;-50
2023/12/15 04:22:09;;;;;;;27.90;9.70;;;;;;;11.87;76.63;103092.81;5031030;28;20045;-45
2023/12/15 04:24:35;;;;;;;27.80;9.57;;;;;;;12.05;76.20;103088.38;5030798;28;20041;-47
2023/12/15 04:27:00;;;;;;;30.63;9.63;;;;;;;12.09;76.05;103081.53;5031320;28;20041;-44
2023/12/15 04:29:25;;;;;;;28.13;9.30;;;;;;;12.09;75.48;103077.22;5031315;28;20037;-44
2023/12/15 04:31:51;;;;;;;28.35;9.13;;;;;;;12.01;76.12;103089.09;5031451;28;20030;-48
2023/12/15 04:34:16;;;;;;;29.05;9.40;;;;;;;12.20;75.79;103090.72;5031720;28;20033;-44
2023/12/15 04:36:41;;;;;;;32.40;8.88;;;;;;;11.93;75.58;103097.41;5030669;28;20048;-44
2023/12/15 04:39:07;;;;;;;22.23;8.60;;;;;;;12.15;75.49;103095.75;5031292;28;20029;-46
2023/12/15 04:41:33;;;;;;;26.60;8.57;;;;;;;12.18;74.99;103090.69;5030155;28;20127;-46
2023/12/15 04:43:58;;;;;;;21.27;8.13;;;;;;;12.16;75.23;103084.47;5031457;28;20487;-45
2023/12/15 04:46:28;;;;;;;26.70;8.55;;;;;;;12.15;75.39;103090.53;5029849;28;20042;-46
2023/12/15 04:48:55;;;;;;;26.35;8.00;;;;;;;12.08;75.43;103103.28;5031310;28;20036;-48
2023/12/15 04:51:21;;;;;;;21.75;7.65;;;;;;;12.00;76.11;103105.59;5031101;28;20064;-44
2023/12/15 04:53:48;;;;;;;25.65;8.73;;;;;;;12.11;75.50;103120.00;5029847;28;20488;-44
2023/12/15 04:56:13;;;;;;;24.67;8.18;;;;;;;12.22;75.25;103122.19;5030480;28;20045;-46
2023/12/15 04:58:39;;;;;;;18.98;7.18;;;;;;;12.15;75.22;103124.53;5030354;28;20056;-45
2023/12/15 05:01:05;;;;;;;29.08;8.32;;;;;;;12.02;75.36;103129.16;5030976;28;20400;-45
2023/12/15 05:03:33;;;;;;;23.00;7.80;;;;;;;12.14;75.43;103127.97;5030092;28;20033;-47
2023/12/15 05:05:59;;;;;;;31.67;8.23;;;;;;;11.94;76.07;103131.47;5029242;28;20121;-47
2023/12/15 05:08:25;;;;;;;26.80;7.90;;;;;;;12.22;75.28;103127.41;5030309;28;20124;-48
2023/12/15 05:10:50;;;;;;;29.08;7.63;;;;;;;12.19;75.12;103125.56;5030617;28;20033;-50
2023/12/15 05:13:15;;;;;;;28.55;7.82;;;;;;;12.04;75.59;103132.75;5030837;28;20526;-45
2023/12/15 05:15:41;;;;;;;23.88;7.88;;;;;;;12.15;75.46;103141.94;5030206;28;20048;-51
2023/12/15 05:18:06;;;;;;;27.55;7.70;;;;;;;12.07;76.05;103143.34;5031136;28;20111;-46
2023/12/15 05:20:32;;;;;;;25.13;7.55;;;;;;;12.25;75.48;103153.72;5030458;28;20107;-45
2023/12/15 05:22:57;;;;;;;33.33;7.95;;;;;;;12.11;75.66;103148.78;5030681;28;20037;-49
2023/12/15 05:25:22;;;;;;;24.58;7.22;;;;;;;12.24;75.08;103162.38;5031134;28;20041;-43
2023/12/15 05:27:47;;;;;;;26.75;7.50;;;;;;;12.10;75.56;103167.91;5031240;28;20029;-44
2023/12/15 05:30:13;;;;;;;25.50;7.78;;;;;;;12.21;74.90;103160.50;5030853;28;20041;-44
2023/12/15 05:32:39;;;;;;;26.13;7.35;;;;;;;12.15;75.09;103162.84;5031835;28;20052;-43
2023/12/15 05:35:04;;;;;;;24.65;7.38;;;;;;;12.29;75.05;103166.06;5031913;28;20064;-46
2023/12/15 05:37:30;;;;;;;33.35;8.02;;;;;;;12.14;75.49;103153.22;5031113;28;20101;-48
2023/12/15 05:39:57;;;;;;;36.10;7.70;;;;;;;12.09;75.61;103150.41;5030615;28;20461;-44
2023/12/15 05:42:23;;;;;;;23.20;6.70;;;;;;;12.14;75.86;103146.28;5030776;28;20041;-46
2023/12/15 05:44:48;;;;;;;32.40;6.65;;;;;;;12.30;74.78;103158.31;5030870;28;20029;-47
2023/12/15 05:47:13;;;;;;;29.70;7.43;;;;;;;12.06;75.36;103150.31;5031159;28;20244;-44
2023/12/15 05:49:40;;;;;;;28.40;6.97;;;;;;;12.16;75.61;103148.97;5030092;28;20083;-44
2023/12/15 05:52:08;;;;;;;30.17;7.07;;;;;;;12.12;75.79;103157.50;5030351;28;20052;-44
2023/12/15 05:54:34;;;;;;;31.58;6.95;;;;;;;12.10;75.95;103161.78;5029603;28;20045;-45
2023/12/15 05:56:59;;;;;;;32.53;6.57;;;;;;;12.02;76.21;103171.88;5030025;28;20431;-46
2023/12/15 05:59:24;;;;;;;24.30;6.40;;;;;;;12.10;75.92;103175.75;5029966;28;20050;-48
2023/12/15 06:01:50;;;;;;;26.83;6.50;;;;;;;12.30;75.20;103179.22;5029794;28;20063;-46
2023/12/15 06:04:15;;;;;;;22.05;5.80;;;;;;;12.38;74.95;103179.56;5032787;28;20187;-47
2023/12/15 06:06:41;;;;;;;18.15;6.22;;;;;;;12.42;74.53;103174.50;5033407;28;20053;-49
2023/12/15 06:09:06;;;;;;;23.90;6.50;;;;;;;12.42;74.14;103184.09;5032677;28;20060;-45
2023/12/15 06:11:31;;;;;;;20.27;6.22;;;;;;;12.49;74.20;103187.03;5033620;28;20496;-47
2023/12/15 06:13:56;;;;;;;19.92;6.25;;;;;;;12.36;74.14;103196.91;5033881;28;20034;-47
2023/12/15 06:16:22;;;;;;;29.27;6.75;;;;;;;12.38;74.27;103198.72;5034326;28;20040;-47
2023/12/15 06:18:48;;;;;;;25.25;6.70;;;;;;;12.12;75.44;103200.25;5033395;28;20118;-49
2023/12/15 06:21:24;;;;;;;19.75;6.30;;;;;;;12.39;74.49;103207.47;5033388;28;20418;-50
2023/12/15 06:23:50;;;;;;;19.45;5.78;;;;;;;12.46;73.90;103197.34;5033359;28;20445;-50
2023/12/15 06:26:25;;;;;;;21.63;5.95;;;;;;;12.47;73.93;103190.41;5033652;28;20025;-47
2023/12/15 06:28:53;;;;;;;28.00;5.68;;;;;;;12.44;74.08;103195.50;5033363;28;20056;-46
2023/12/15 06:31:19;;;;;;;22.75;6.22;;;;;;;12.49;73.90;103205.34;5033322;28;20056;-45
2023/12/15 06:33:44;;;;;;;18.58;5.70;;;;;;;12.49;73.78;103204.44;5033266;28;20034;-49
2023/12/15 06:36:10;;;;;;;31.88;6.55;;;;;;;12.24;74.32;103215.56;5033595;28;20037;-46
2023/12/15 06:38:36;;;;;;;24.17;5.95;;;;;;;12.09;75.23;103227.97;5033169;28;20041;-47
2023/12/15 06:41:04;;;;;;;19.85;5.57;;;;;;;12.05;75.76;103226.94;5033455;28;20039;-47
2023/12/15 06:43:29;;;;;;;21.35;5.40;;;;;;;12.29;75.33;103234.06;5033062;28;20094;-43
2023/12/15 06:45:55;;;;;;;29.70;5.97;;;;;;;12.37;74.25;103236.22;5033241;28;20029;-44
2023/12/15 06:48:20;;;;;;;23.10;6.03;;;;;;;12.41;74.08;103240.75;5033826;28;20188;-46
2023/12/15 06:50:45;;;;;;;20.92;6.00;;;;;;;12.37;74.47;103246.69;5033166;28;20495;-47
2023/12/15 06:53:11;;;;;;;24.40;5.40;;;;;;;12.37;74.19;103245.78;5033567;28;20042;-48
2023/12/15 06:55:36;;;;;;;26.70;6.43;;;;;;;12.48;73.59;103248.03;5032657;28;20044;-49
2023/12/15 06:58:01;;;;;;;20.02;5.25;;;;;;;12.50;73.37;103248.97;5033507;28;20045;-46
2023/12/15 07:00:27;;;;;;;26.00;5.88;;;;;;;12.05;74.77;103257.41;5032733;28;20061;-45
2023/12/15 07:02:52;;;;;;;25.83;5.68;;;;;;;12.16;75.49;103261.41;5033390;28;20075;-46
2023/12/15 07:05:17;;;;;;;22.70;5.65;;;;;;;12.19;75.16;103258.94;5032544;28;20415;-47
2023/12/15 07:07:42;;;;;;;20.05;5.70;;;;;;;12.41;74.35;103266.00;5031878;28;20053;-44
2023/12/15 07:10:08;;;;;;;21.58;5.30;;;;;;;12.37;74.39;103261.47;5033325;28;20457;-43
2023/12/15 07:12:33;;;;;;;25.50;5.80;;;;;;;12.48;73.51;103257.59;5032385;28;20065;-50
2023/12/15 07:14:58;;;;;;;19.08;5.25;;;;;;;12.40;73.69;103257.25;5032836;28;20692;-45
2023/12/15 07:17:24;;;;;;;26.75;5.32;;;;;;;12.37;73.74;103259.75;5032727;28;20033;-49
2023/12/15 07:19:49;;;;;;;20.35;4.72;;;;;;;12.39;73.90;103251.94;5033046;28;20129;-45
2023/12/15 07:22:14;;;;;;;18.88;5.25;;;;;;;12.33;74.16;103268.28;5032740;28;20041;-44
2023/12/15 07:24:41;;;;;;;25.52;5.63;;;;;;;12.26;74.18;103276.66;5032842;28;20051;-45
2023/12/15 07:27:07;;;;;;;20.15;5.28;;;;;;;12.26;74.59;103274.06;5033365;28;20184;-48
2023/12/15 07:29:32;;;;;;;25.45;5.20;;;;;;;12.23;74.41;103273.94;5032044;28;20037;-48
2023/12/15 07:31:58;;;;;;;20.17;5.00;;;;;;;12.34;74.14;103270.06;5032356;28;20408;-45
2023/12/15 07:34:23;;;;;;;18.58;4.78;;;;;;;12.44;73.74;103274.88;5032278;28;20128;-44
2023/12/15 07:36:48;;;;;;;24.23;5.30;;;;;;;12.18;74.47;103270.22;5031949;28;20488;-50
2023/12/15 07:39:20;;;;;;;22.27;5.43;;;;;;;12.32;73.62;103282.16;5030871;28;20037;-45
2023/12/15 07:41:46;;;;;;;24.35;5.10;;;;;;;12.52;73.24;103283.97;5031774;28;20040;-45
2023/12/15 07:44:13;;;;;;;20.83;4.88;;;;;;;12.50;72.87;103289.97;5032501;28;20037;-49
2023/12/15 07:46:38;;;;;;;16.73;4.60;;;;;;;12.60;72.49;103292.16;5030814;28;20037;-47
2023/12/15 07:49:03;;;;;;;19.40;4.60;;;;;;;12.54;72.16;103300.63;5032542;28;20088;-46
2023/12/15 07:51:29;;;;;;;22.33;4.95;;;;;;;12.51;72.34;103304.81;5031425;28;20523;-49
2023/12/15 07:53:54;;;;;;;20.88;5.25;;;;;;;12.39;73.16;103309.50;5032352;28;20037;-49
2023/12/15 07:56:21;;;;;;;19.42;5.30;;;;;;;12.42;73.07;103318.41;5032626;28;20033;-50
2023/12/15 07:58:47;;;;;;;20.05;5.40;;;;;;;12.47;72.41;103323.84;5031775;28;20038;-45
2023/12/15 08:01:12;;;;;;;17.17;5.03;;;;;;;12.59;72.22;103333.13;5032021;28;20041;-49
2023/12/15 08:03:37;;;;;;;25.10;5.30;;;;;;;12.56;72.30;103335.59;5031294;28;20035;-49
2023/12/15 08:06:02;;;;;;;23.08;5.32;;;;;;;12.60;71.92;103336.63;5031793;28;20045;-47
2023/12/15 08:08:28;;;;;;;20.27;5.18;;;;;;;12.45;72.51;103342.06;5031296;28;20399;-48
2023/12/15 08:10:53;;;;;;;18.73;5.38;;;;;;;12.40;72.13;103335.75;5032167;28;20061;-44
2023/12/15 08:13:20;;;;;;;17.80;5.10;;;;;;;12.56;72.02;103346.06;5032076;28;20099;-44
2023/12/15 08:15:46;;;;;;;18.48;5.15;;;;;;;12.44;72.93;103342.88;5030905;28;20025;-45
2023/12/15 08:18:11;;;;;;;21.85;5.03;;;;;;;12.43;72.47;103353.31;5032050;28;20037;-45
2023/12/15 08:20:37;;;;;;;23.13;5.13;;;;;;;12.60;72.46;103352.34;5030903;28;20040;-48
2023/12/15 08:23:03;;;;;;;21.67;4.80;;;;;;;12.53;72.00;103348.56;5032176;28;20041;-47
2023/12/15 08:25:28;;;;;;;20.02;4.72;;;;;;;12.39;71.85;103352.25;5030713;28;20168;-45
2023/12/15 08:27:54;;;;;;;16.98;4.70;;;;;;;12.54;71.32;103360.81;5032477;28;20499;-43
2023/12/15 08:30:19;;;;;;;18.00;4.97;;;;;;;12.71;71.45;103372.03;5031960;28;20033;-46
2023/12/15 08:32:44;;;;;;;19.40;4.97;;;;;;;12.80;71.02;103377.69;5031581;28;20037;-45
2023/12/15 08:35:10;;;;;;;15.65;4.15;;;;;;;12.75;71.12;103384.41;5031828;28;20734;-44
2023/12/15 08:37:35;;;;;;;16.10;4.72;;;;;;;12.59;71.01;103381.94;5031299;28;20120;-48
2023/12/15 08:40:00;;;;;;;13.88;4.35;;;;;;;12.73;70.62;103386.09;5032014;28;20064;-47
2023/12/15 08:42:26;;;;;;;13.80;4.65;;;;;;;12.59;70.58;103389.78;5032261;28;20040;-45
2023/12/15 08:44:51;;;;;;;15.25;4.13;;;;;;;12.74;70.45;103384.38;5031335;28;20055;-51
2023/12/15 08:47:16;;;;;;;23.42;4.30;;;;;;;12.76;69.94;103382.69;5031329;28;20034;-49
2023/12/15 08:49:42;;;;;;;19.15;3.75;;;;;;;12.54;70.04;103394.81;5030461;28;20026;-47
2023/12/15 08:52:07;;;;;;;16.70;3.65;;;;;;;12.72;69.61;103404.31;5030637;28;20041;-47
2023/12/15 08:54:32;;;;;;;17.65;3.65;;;;;;;12.90;69.01;103406.03;5030433;28;20532;-46
2023/12/15 08:56:57;;;;;;;18.90;3.80;;;;;;;12.74;68.30;103413.16;5029639;28;20395;-49
2023/12/15 08:59:23;;;;;;;20.40;4.22;;;;;;;12.63;68.46;103416.97;5030436;28;20546;-45
2023/12/15 09:01:48;;;;;;;17.52;3.50;;;;;;;12.64;67.64;103416.16;5030772;28;20030;-46
2023/12/15 09:04:14;;;;;;;16.05;3.78;;;;;;;12.80;67.70;103419.56;5030896;28;20042;-45
2023/12/15 09:06:39;;;;;;;16.92;3.25;;;;;;;12.79;67.54;103417.75;5030346;28;20034;-43
2023/12/15 09:09:05;;;;;;;15.73;3.65;;;;;;;12.98;66.94;103429.94;5030812;28;20063;-47
2023/12/15 09:11:30;;;;;;;18.95;3.95;;;;;;;12.76;67.02;103435.03;5030142;28;20029;-50
2023/12/15 09:13:56;;;;;;;17.20;3.80;;;;;;;12.99;66.49;103448.31;5030570;28;20141;-44
2023/12/15 09:16:21;;;;;;;17.67;4.20;;;;;;;12.68;66.80;103447.81;5031007;28;20038;-47
2023/12/15 09:18:46;;;;;;;17.38;3.53;;;;;;;13.00;65.95;103454.47;5030797;28;20091;-44
2023/12/15 09:21:12;;;;;;;17.23;3.53;;;;;;;12.90;65.72;103461.03;5030502;28;20657;-46
2023/12/15 09:23:37;;;;;;;20.42;3.80;;;;;;;12.86;65.62;103471.31;5030406;28;20038;-49
2023/12/15 09:26:03;;;;;;;17.30;3.58;;;;;;;12.88;64.93;103473.13;5031880;28;20094;-47
2023/12/15 09:28:28;;;;;;;16.30;2.97;;;;;;;12.93;64.18;103473.34;5030958;28;20044;-46
2023/12/15 09:30:53;;;;;;;17.55;3.55;;;;;;;12.91;64.15;103473.28;5031072;28;20044;-48
2023/12/15 09:33:19;;;;;;;14.32;3.20;;;;;;;13.00;64.04;103475.41;5030473;28;20037;-44
2023/12/15 09:35:44;;;;;;;13.98;3.08;;;;;;;13.29;63.13;103480.28;5029922;28;20535;-45
2023/12/15 09:38:09;;;;;;;14.75;2.88;;;;;;;13.12;63.52;103488.16;5030192;28;20033;-46
2023/12/15 09:40:35;;;;;;;15.68;3.38;;;;;;;13.18;63.50;103488.47;5029955;28;20045;-44
2023/12/15 09:43:00;;;;;;;15.52;3.40;;;;;;;13.08;63.76;103489.75;5030187;28;20099;-46
2023/12/15 09:45:26;;;;;;;15.27;3.35;;;;;;;12.90;64.07;103495.06;5029789;28;20034;-49
2023/12/15 09:47:52;;;;;;;17.58;3.35;;;;;;;13.10;64.05;103498.59;5030283;28;20037;-46
2023/12/15 09:50:20;;;;;;;15.40;3.45;;;;;;;13.17;63.40;103505.94;5030285;28;20029;-46
2023/12/15 09:52:45;;;;;;;16.75;3.22;;;;;;;13.09;63.91;103520.38;5027955;28;20067;-46
2023/12/15 09:55:11;;;;;;;15.15;3.10;;;;;;;13.14;63.49;103536.31;5030024;28;20061;-46
2023/12/15 09:57:38;;;;;;;14.73;2.97;;;;;;;13.08;64.39;103543.84;5029520;28;20053;-49
2023/12/15 10:00:06;;;;;;;11.43;2.70;;;;;;;13.28;63.21;103549.22;5029845;28;20034;-45
2023/12/15 10:02:34;;;;;;;10.65;2.55;;;;;;;13.30;62.62;103555.41;5029332;28;20046;-45
2023/12/15 10:04:59;;;;;;;15.85;3.08;;;;;;;13.56;61.58;103547.78;5030055;28;20037;-45
2023/12/15 10:07:25;;;;;;;12.93;2.80;;;;;;;13.73;61.46;103545.06;5028233;28;20033;-48
2023/12/15 10:09:50;;;;;;;13.65;2.70;;;;;;;13.63;60.09;103550.75;5030075;28;20519;-44
2023/12/15 10:12:15;;;;;;;13.13;2.42;;;;;;;13.82;59.74;103555.06;5029951;28;20065;-45
2023/12/15 10:14:41;;;;;;;15.35;3.15;;;;;;;13.58;59.99;103561.88;5028811;28;20034;-43
2023/12/15 10:17:10;;;;;;;13.20;2.80;;;;;;;13.30;59.71;103557.13;5029911;28;20506;-46
2023/12/15 10:19:36;;;;;;;13.45;2.60;;;;;;;13.26;60.30;103563.06;5029468;28;20171;-47
2023/12/15 10:22:02;;;;;;;14.82;2.72;;;;;;;13.48;59.89;103563.16;5029685;28;20030;-47
2023/12/15 10:24:28;;;;;;;11.88;2.30;;;;;;;13.25;59.95;103576.97;5029315;28;20586;-47
2023/12/15 10:26:53;;;;;;;14.55;2.55;;;;;;;13.30;59.27;103578.06;5029984;28;20037;-47
2023/12/15 10:29:19;;;;;;;12.73;2.72;;;;;;;13.60;58.94;103581.19;5030234;28;20038;-46
2023/12/15 10:31:45;;;;;;;11.73;2.25;;;;;;;13.57;58.50;103584.56;5029288;28;20396;-49
2023/12/15 10:34:10;;;;;;;10.00;2.22;;;;;;;13.36;57.82;103584.50;5030258;28;20026;-44
2023/12/15 10:36:44;;;;;;;13.40;2.33;;;;;;;13.61;57.41;103588.19;5030424;28;20104;-47
2023/12/15 10:39:12;;;;;;;12.77;2.60;;;;;;;13.63;57.23;103597.03;5030705;28;20474;-47
2023/12/15 10:41:39;;;;;;;14.25;2.50;;;;;;;13.54;58.53;103592.28;5029489;28;20044;-47
2023/12/15 10:44:05;;;;;;;15.43;2.28;;;;;;;13.60;56.76;103602.16;5030813;28;20492;-50
2023/12/15 10:46:31;;;;;;;11.20;2.50;;;;;;;13.88;56.53;103613.03;5030732;28;20136;-48
2023/12/15 10:48:59;;;;;;;11.30;2.00;;;;;;;13.54;55.96;103618.47;5031274;28;20040;-47
2023/12/15 10:51:29;;;;;;;10.50;2.10;;;;;;;13.46;57.00;103621.59;5033337;28;20496;-50
2023/12/15 10:53:56;;;;;;;11.82;2.25;;;;;;;13.56;55.65;103611.59;5033979;28;20033;-44
2023/12/15 10:56:22;;;;;;;10.43;2.20;;;;;;;13.63;55.87;103611.03;5033921;28;20065;-45
2023/12/15 10:58:48;;;;;;;10.18;2.33;;;;;;;13.67;55.49;103606.81;5034122;28;20112;-52
2023/12/15 11:01:15;;;;;;;9.98;2.08;;;;;;;13.64;55.35;103625.06;5033604;28;20042;-49
2023/12/15 11:03:41;;;;;;;13.35;2.28;;;;;;;13.40;56.22;103622.22;5033819;28;20048;-46
2023/12/15 11:06:06;;;;;;;10.50;1.85;;;;;;;13.67;55.46;103618.22;5033978;28;20037;-46